createdAt,value
2023-03-23T15:58:31.475Z,4.90
2023-03-23T16:01:39.010Z,4.47
2023-03-23T16:04:46.297Z,5.23
2023-03-23T16:07:52.308Z,4.77
2023-03-23T16:10:56.676Z,5.00
2023-03-23T16:14:01.777Z,4.67
2023-03-23T16:17:07.738Z,4.33
2023-03-23T16:20:17.577Z,6.00
2023-03-23T16:23:21.617Z,4.93
2023-03-23T16:26:25.866Z,5.50
2023-03-23T16:35:44.089Z,5.67
2023-03-23T16:38:49.007Z,5.90
2023-03-23T16:41:53.999Z,6.10
2023-03-23T16:44:57.945Z,6.10
2023-03-23T16:48:03.657Z,6.00
2023-03-23T16:51:08.052Z,6.50
2023-03-23T16:54:12.204Z,7.10
2023-03-23T16:57:17.079Z,8.13
2023-03-23T17:00:22.409Z,8.17
2023-03-23T17:03:28.187Z,7.73
2023-03-23T17:06:32.824Z,7.23
2023-03-23T17:09:36.875Z,7.63
2023-03-23T17:12:41.889Z,7.90
2023-03-23T17:15:47.744Z,7.10
2023-03-23T17:18:53.477Z,7.93
2023-03-23T17:21:57.499Z,7.47
2023-03-23T17:25:02.532Z,7.33
2023-03-23T17:28:07.353Z,7.00
2023-03-23T17:31:11.595Z,8.20
2023-03-23T17:34:18.741Z,8.73
2023-03-23T17:37:23.925Z,8.13
2023-03-23T17:40:28.221Z,8.77
2023-03-23T17:43:32.423Z,8.53
2023-03-23T17:46:36.739Z,8.70
2023-03-23T17:49:42.376Z,8.27
2023-03-23T17:52:46.352Z,8.73
2023-03-23T17:55:50.576Z,8.20
2023-03-23T17:58:54.639Z,8.93
2023-03-23T18:01:59.187Z,7.83
2023-03-23T18:05:04.746Z,9.40
2023-03-23T18:08:09.509Z,8.90
2023-03-23T18:11:13.951Z,9.40
2023-03-23T18:14:18.200Z,8.87
2023-03-23T18:17:22.364Z,9.70
2023-03-23T18:20:28.251Z,10.00
2023-03-23T18:23:39.071Z,9.77
2023-03-23T18:26:47.404Z,10.30
2023-03-23T18:29:51.502Z,9.83
2023-03-23T18:32:55.865Z,11.07
2023-03-23T18:36:02.808Z,12.83
2023-03-23T18:39:09.625Z,13.23
2023-03-23T18:42:13.748Z,14.13
2023-03-23T18:45:17.992Z,13.83
2023-03-23T18:48:22.178Z,13.63
2023-03-23T18:51:27.895Z,11.30
2023-03-23T18:54:35.048Z,11.83
2023-03-23T18:57:41.416Z,11.13
2023-03-23T19:00:46.574Z,10.80
2023-03-23T19:03:50.704Z,11.73
2023-03-23T19:06:56.383Z,10.57
2023-03-23T19:10:00.404Z,10.30
2023-03-23T19:13:04.764Z,13.43
2023-03-23T19:16:09.772Z,14.93
2023-03-23T19:19:14.263Z,14.50
2023-03-23T19:22:19.973Z,43.80
2023-03-23T19:25:24.136Z,56.00
2023-03-23T19:31:35.568Z,46.77
2023-03-23T19:34:39.748Z,36.40
2023-03-23T19:37:46.033Z,26.60
2023-03-23T19:40:56.003Z,23.63
2023-03-23T19:44:01.703Z,23.50
2023-03-23T19:47:05.995Z,21.77
2023-03-23T19:50:10.616Z,19.00
2023-03-23T19:53:18.913Z,19.27
2023-03-23T19:56:23.485Z,15.27
2023-03-23T19:59:27.948Z,14.50
2023-03-23T20:02:32.247Z,14.20
2023-03-23T20:05:36.960Z,13.20
2023-03-23T20:08:48.774Z,13.80
2023-03-23T20:11:53.552Z,13.00
2023-03-23T20:14:59.114Z,12.63
2023-03-23T20:18:03.567Z,12.97
2023-03-23T20:21:09.839Z,13.07
2023-03-23T20:24:15.634Z,12.53
2023-03-23T20:27:19.698Z,12.00
2023-03-23T20:30:23.874Z,11.30
2023-03-23T20:33:30.766Z,11.70
2023-03-23T20:36:37.212Z,12.03
2023-03-23T20:39:42.921Z,13.03
2023-03-23T20:42:47.006Z,13.47
2023-03-23T20:45:51.106Z,12.53
2023-03-23T20:48:56.035Z,11.40
2023-03-23T20:52:00.283Z,11.53
2023-03-23T20:55:06.408Z,12.07
2023-03-23T20:58:10.527Z,12.17
2023-03-23T21:01:15.213Z,14.07
2023-03-23T21:04:22.386Z,13.53
2023-03-23T21:07:27.948Z,15.70
2023-03-23T21:10:33.580Z,17.77
2023-03-23T21:13:38.058Z,15.27
2023-03-23T21:16:43.221Z,15.53
2023-03-23T21:19:48.065Z,15.17
2023-03-23T21:22:52.237Z,14.80
2023-03-23T21:26:02.235Z,13.30
2023-03-23T21:29:10.369Z,11.70
2023-03-23T21:32:14.592Z,12.63
2023-03-23T21:35:18.790Z,12.67
2023-03-23T21:38:26.432Z,12.00
2023-03-23T21:41:41.930Z,12.67
2023-03-23T21:44:47.205Z,13.93
2023-03-23T21:47:58.244Z,12.97
2023-03-23T21:51:07.960Z,12.13
2023-03-23T21:54:12.936Z,12.00
2023-03-23T21:57:18.944Z,12.33
2023-03-23T22:00:23.691Z,12.27
2023-03-23T22:03:32.508Z,11.93
2023-03-23T22:06:36.841Z,13.60
2023-03-23T22:09:45.512Z,13.27
2023-03-23T22:12:54.396Z,13.67
2023-03-23T22:16:01.201Z,14.90
2023-03-23T22:19:05.610Z,14.77
2023-03-23T22:22:09.751Z,15.27
2023-03-23T22:25:13.990Z,14.43
2023-03-23T22:28:19.776Z,15.63
2023-03-23T22:31:26.909Z,15.17
2023-03-23T22:34:32.870Z,14.67
2023-03-23T22:37:37.173Z,16.27
2023-03-23T22:40:42.923Z,16.70
2023-03-23T22:43:49.599Z,17.13
2023-03-23T22:46:53.751Z,16.87
2023-03-23T22:49:58.016Z,18.70
2023-03-23T22:53:02.290Z,18.13
2023-03-23T22:56:08.071Z,18.20
2023-03-23T22:59:13.896Z,18.87
2023-03-23T23:02:18.216Z,17.87
2023-03-23T23:05:22.634Z,18.33
2023-03-23T23:08:28.374Z,16.67
2023-03-23T23:11:32.939Z,16.33
2023-03-23T23:14:40.353Z,16.63
2023-03-23T23:17:44.555Z,17.30
2023-03-23T23:20:51.080Z,16.50
2023-03-23T23:23:55.510Z,16.83
2023-03-23T23:27:00.175Z,17.53
2023-03-23T23:30:07.038Z,17.13
2023-03-23T23:33:11.500Z,15.93
2023-03-23T23:36:16.048Z,16.60
2023-03-23T23:39:20.387Z,16.90
2023-03-23T23:42:25.699Z,18.00
2023-03-23T23:45:31.877Z,16.93
2023-03-23T23:48:36.141Z,15.77
2023-03-23T23:51:41.607Z,17.90
2023-03-23T23:54:47.750Z,17.80
2023-03-23T23:57:52.181Z,17.37
